createdAt,value
2019-03-01T00:02:24.091Z,5.37
2019-03-01T00:05:00.671Z,4.97
2019-03-01T00:10:58.655Z,5.93
2019-03-01T00:17:04.187Z,5.93
2019-03-01T00:22:38.140Z,6.70
2019-03-01T00:28:32.414Z,5.67
2019-03-01T00:34:53.005Z,6.57
2019-03-01T00:46:55.184Z,4.63
2019-03-01T00:49:27.096Z,6.73
2019-03-01T00:59:12.327Z,3.77
2019-03-01T01:04:32.311Z,4.13
2019-03-01T01:09:59.983Z,7.70
2019-03-01T01:12:33.943Z,4.63
2019-03-01T01:15:23.089Z,4.83
2019-03-01T01:18:00.311Z,4.23
2019-03-01T01:23:51.021Z,4.67
2019-03-01T01:26:26.335Z,4.53
2019-03-01T01:29:26.045Z,4.57
2019-03-01T01:32:00.564Z,3.43
2019-03-01T01:34:32.652Z,5.50
2019-03-01T01:37:23.700Z,3.40
2019-03-01T01:39:56.300Z,2.80
2019-03-01T01:42:29.558Z,2.87
2019-03-01T01:45:00.977Z,3.97
2019-03-01T01:47:32.950Z,5.07
2019-03-01T01:50:06.251Z,3.93
2019-03-01T01:52:41.524Z,3.40
2019-03-01T02:02:19.941Z,3.63
2019-03-01T02:04:53.933Z,3.63
2019-03-01T02:10:18.722Z,6.73
2019-03-01T02:19:55.106Z,5.03
2019-03-01T02:22:32.692Z,3.73
2019-03-01T02:25:03.318Z,7.33
2019-03-01T02:28:22.706Z,5.40
2019-03-01T02:30:55.357Z,3.87
2019-03-01T02:33:30.106Z,4.03
2019-03-01T02:36:00.765Z,4.80
2019-03-01T02:38:33.193Z,2.83
2019-03-01T02:41:06.788Z,2.80
2019-03-01T02:43:40.595Z,3.53
2019-03-01T02:46:12.677Z,1.57
2019-03-01T02:49:20.652Z,2.70
2019-03-01T02:51:55.430Z,1.97
2019-03-01T02:57:02.893Z,3.53
2019-03-01T02:59:33.842Z,2.47
2019-03-01T03:02:52.541Z,4.80
2019-03-01T03:05:26.523Z,2.50
2019-03-01T03:10:48.588Z,1.13
2019-03-01T03:16:13.397Z,1.80
2019-03-01T03:18:47.034Z,2.33
2019-03-01T03:21:29.821Z,2.60
2019-03-01T03:24:02.977Z,1.17
2019-03-01T03:27:16.437Z,3.33
2019-03-01T03:29:53.863Z,1.40
2019-03-01T03:32:25.660Z,1.67
2019-03-01T03:35:44.855Z,1.93
2019-03-01T03:38:19.270Z,1.90
2019-03-01T03:43:38.752Z,1.13
2019-03-01T03:49:03.865Z,0.57
2019-03-01T03:51:33.101Z,0.73
2019-03-01T03:54:11.980Z,0.43
2019-03-01T03:56:44.364Z,1.47
2019-03-01T03:59:44.190Z,0.67
2019-03-01T04:02:14.812Z,0.97
2019-03-01T04:04:51.163Z,0.80
2019-03-01T04:07:21.765Z,0.73
2019-03-01T04:09:54.443Z,0.60
2019-03-01T04:19:12.786Z,1.57
2019-03-01T04:21:52.759Z,0.73
2019-03-01T04:24:49.905Z,0.83
2019-03-01T04:27:25.671Z,1.77
2019-03-01T04:29:58.654Z,2.70
2019-03-01T04:33:20.467Z,2.63
2019-03-01T04:35:53.192Z,2.20
2019-03-01T04:38:26.340Z,0.70
2019-03-01T04:40:59.106Z,1.20
2019-03-01T04:43:31.122Z,0.50
2019-03-01T04:46:34.862Z,0.60
2019-03-01T04:49:07.047Z,1.37
2019-03-01T04:54:33.573Z,1.23
2019-03-01T04:57:05.800Z,1.27
2019-03-01T05:00:18.918Z,2.50
2019-03-01T05:02:54.854Z,1.10
2019-03-01T05:08:22.294Z,0.77
2019-03-01T05:10:52.570Z,1.57
2019-03-01T05:13:34.046Z,0.53
2019-03-01T05:16:09.782Z,1.00
2019-03-01T05:18:43.742Z,2.73
2019-03-01T05:21:15.909Z,0.70
2019-03-01T05:23:49.742Z,1.53
2019-03-01T05:30:01.043Z,1.17
2019-03-01T05:32:31.496Z,1.37
2019-03-01T05:35:02.880Z,0.70
2019-03-01T05:37:38.429Z,0.80
2019-03-01T05:40:17.944Z,1.17
2019-03-01T05:42:48.311Z,1.00
2019-03-01T05:45:32.726Z,2.33
2019-03-01T05:48:04.005Z,3.57
2019-03-01T05:50:40.131Z,1.53
2019-03-01T05:53:16.592Z,2.60
2019-03-01T05:55:48.349Z,2.43
2019-03-01T05:58:34.792Z,2.37
2019-03-01T06:01:12.676Z,1.47
2019-03-01T06:03:56.870Z,2.50
2019-03-01T06:06:46.766Z,3.17
2019-03-01T06:10:02.374Z,2.40
2019-03-01T06:12:59.154Z,3.47
2019-03-01T06:15:43.236Z,3.63
2019-03-01T06:18:40.612Z,1.97
2019-03-01T06:21:48.587Z,2.83
2019-03-01T06:24:40.893Z,3.00
2019-03-01T06:27:23.902Z,3.97
2019-03-01T06:30:02.804Z,3.33
2019-03-01T06:33:02.501Z,2.87
2019-03-01T06:35:42.645Z,3.10
2019-03-01T06:38:31.173Z,4.00
2019-03-01T06:41:09.284Z,5.10
2019-03-01T06:44:19.782Z,3.53
2019-03-01T06:47:13.339Z,4.37
2019-03-01T06:50:02.106Z,4.77
2019-03-01T06:52:45.361Z,3.50
2019-03-01T06:55:26.149Z,4.13
2019-03-01T06:58:12.046Z,3.83
2019-03-01T07:00:50.226Z,8.30
2019-03-01T07:03:19.581Z,5.30
2019-03-01T07:05:49.505Z,4.80
2019-03-01T07:08:23.966Z,7.30
2019-03-01T07:10:56.396Z,5.13
2019-03-01T07:13:28.847Z,5.50
2019-03-01T07:16:04.106Z,5.23
2019-03-01T07:18:34.506Z,6.17
2019-03-01T07:21:10.573Z,5.57
2019-03-01T07:23:44.880Z,4.97
2019-03-01T07:26:15.468Z,5.23
2019-03-01T07:28:47.317Z,5.80
2019-03-01T07:31:20.698Z,5.90
2019-03-01T07:33:57.985Z,7.63
2019-03-01T07:36:22.102Z,5.57
2019-03-01T07:38:55.429Z,6.83
2019-03-01T07:41:26.792Z,5.60
2019-03-01T07:43:59.609Z,6.70
2019-03-01T07:46:29.124Z,6.97
2019-03-01T07:49:02.648Z,8.23
2019-03-01T07:51:36.723Z,9.97
2019-03-01T07:54:09.936Z,8.73
2019-03-01T07:56:47.218Z,8.80
2019-03-01T07:59:19.341Z,9.07
2019-03-01T08:01:56.213Z,10.23
2019-03-01T08:04:28.736Z,11.17
2019-03-01T08:06:59.515Z,12.17
2019-03-01T08:09:31.400Z,14.17
2019-03-01T08:12:03.601Z,21.83
2019-03-01T08:14:34.500Z,21.70
2019-03-01T08:17:06.603Z,24.37
2019-03-01T08:19:45.637Z,24.63
2019-03-01T08:22:20.765Z,26.97
2019-03-01T08:24:57.511Z,30.60
2019-03-01T08:27:27.989Z,30.00
2019-03-01T08:30:00.618Z,28.10
2019-03-01T08:32:31.923Z,30.57
2019-03-01T08:35:05.233Z,35.07
2019-03-01T08:37:39.854Z,40.93
2019-03-01T08:40:18.788Z,37.67
2019-03-01T08:42:53.050Z,41.33
2019-03-01T08:45:26.120Z,39.53
2019-03-01T08:47:55.524Z,43.97
2019-03-01T08:50:34.904Z,47.30
2019-03-01T08:53:06.589Z,47.90
2019-03-01T08:55:38.887Z,44.27
2019-03-01T08:58:07.685Z,47.53
2019-03-01T09:00:42.621Z,50.97
2019-03-01T09:03:22.374Z,54.23
2019-03-01T09:05:51.858Z,56.30
2019-03-01T09:08:21.352Z,58.43
2019-03-01T09:10:50.464Z,56.77
2019-03-01T09:13:19.468Z,56.97
2019-03-01T09:15:52.750Z,53.10
2019-03-01T09:18:27.220Z,65.63
2019-03-01T09:21:06.177Z,62.77
2019-03-01T09:23:43.782Z,66.47
2019-03-01T09:26:22.355Z,74.93
2019-03-01T09:28:48.195Z,74.67
2019-03-01T09:31:17.841Z,76.40
2019-03-01T09:33:48.021Z,84.60
2019-03-01T09:36:21.484Z,92.07
2019-03-01T09:38:51.453Z,84.80
2019-03-01T09:41:26.329Z,81.60
2019-03-01T09:44:03.104Z,96.10
2019-03-01T09:46:31.582Z,100.33
2019-03-01T09:49:05.502Z,95.63
2019-03-01T09:51:43.513Z,91.97
2019-03-01T09:54:17.923Z,83.30
2019-03-01T09:56:48.237Z,82.07
2019-03-01T09:59:39.486Z,75.53
2019-03-01T10:02:18.315Z,87.17
2019-03-01T10:04:42.602Z,77.13
2019-03-01T10:07:12.765Z,72.70
2019-03-01T10:09:48.249Z,66.03
2019-03-01T10:12:21.315Z,81.07
2019-03-01T10:14:51.550Z,70.00
2019-03-01T10:17:23.783Z,70.83
2019-03-01T10:20:01.461Z,74.17
2019-03-01T10:22:35.094Z,72.77
2019-03-01T10:25:08.342Z,74.73
2019-03-01T10:27:37.660Z,76.03
2019-03-01T10:30:14.406Z,70.03
2019-03-01T10:32:51.066Z,63.33
2019-03-01T10:35:21.094Z,59.13
2019-03-01T10:37:50.677Z,57.90
2019-03-01T10:40:31.100Z,56.80
2019-03-01T10:42:56.189Z,50.33
2019-03-01T10:45:36.042Z,49.40
2019-03-01T10:48:16.433Z,43.77
2019-03-01T10:50:50.925Z,49.63
2019-03-01T10:53:20.009Z,39.00
2019-03-01T10:55:50.217Z,29.93
2019-03-01T10:58:23.488Z,38.67
2019-03-01T11:01:01.784Z,31.83
2019-03-01T11:03:33.923Z,25.57
2019-03-01T11:06:40.335Z,30.50
2019-03-01T11:09:10.806Z,26.27
2019-03-01T11:11:50.342Z,32.67
2019-03-01T11:14:18.418Z,27.27
2019-03-01T11:17:38.442Z,29.37
2019-03-01T11:20:10.689Z,25.03
2019-03-01T11:23:12.744Z,26.23
2019-03-01T11:25:51.727Z,24.80
2019-03-01T11:29:03.029Z,27.27
2019-03-01T11:31:38.151Z,27.60
2019-03-01T11:34:11.720Z,26.83
2019-03-01T11:36:45.269Z,28.73
2019-03-01T11:39:52.734Z,26.67
2019-03-01T11:42:23.126Z,24.37
2019-03-01T11:45:37.654Z,25.70
2019-03-01T11:48:01.635Z,22.57
2019-03-01T11:51:14.924Z,19.97
2019-03-01T11:53:47.339Z,21.33
2019-03-01T11:56:53.522Z,19.83
2019-03-01T11:59:29.106Z,19.43
2019-03-01T12:02:40.220Z,17.23
2019-03-01T12:05:17.244Z,21.50
2019-03-01T12:08:08.184Z,20.23
2019-03-01T12:10:40.093Z,21.23
2019-03-01T12:13:37.384Z,18.27
2019-03-01T12:16:07.327Z,20.30
2019-03-01T12:21:28.447Z,17.80
2019-03-01T12:24:51.605Z,18.10
2019-03-01T12:27:21.889Z,19.60
2019-03-01T12:30:26.026Z,17.37
2019-03-01T12:32:56.749Z,17.17
2019-03-01T12:36:05.191Z,19.27
2019-03-01T12:38:40.844Z,18.33
2019-03-01T12:41:59.372Z,15.70
2019-03-01T12:44:32.221Z,18.43
2019-03-01T12:53:49.330Z,23.70
2019-03-01T12:56:19.821Z,24.73
2019-03-01T12:59:25.204Z,28.83
2019-03-01T13:01:55.166Z,27.97
2019-03-01T13:04:54.517Z,27.80
2019-03-01T13:07:23.984Z,33.57
2019-03-01T13:10:29.453Z,31.57
2019-03-01T13:13:07.993Z,37.30
2019-03-01T13:16:26.643Z,37.70
2019-03-01T13:18:59.790Z,38.07
2019-03-01T13:21:32.656Z,43.63
2019-03-01T13:24:41.658Z,40.03
2019-03-01T13:27:14.100Z,38.23
2019-03-01T13:30:20.106Z,41.10
2019-03-01T13:32:52.229Z,38.53
2019-03-01T13:36:13.329Z,40.67
2019-03-01T13:38:44.383Z,39.63
2019-03-01T13:42:01.101Z,41.27
2019-03-01T13:44:39.845Z,35.83
2019-03-01T13:47:13.394Z,40.03
2019-03-01T13:49:46.148Z,34.17
2019-03-01T13:52:54.327Z,34.43
2019-03-01T13:55:25.201Z,34.67
2019-03-01T13:58:26.614Z,25.33
2019-03-01T14:00:59.315Z,32.03
2019-03-01T14:04:09.579Z,26.23
2019-03-01T14:06:55.782Z,25.20
2019-03-01T14:09:53.081Z,22.10
2019-03-01T14:12:37.293Z,23.43
2019-03-01T14:15:45.272Z,23.00
2019-03-01T14:18:17.422Z,21.67
2019-03-01T14:21:29.786Z,23.70
2019-03-01T14:23:59.326Z,25.10
2019-03-01T14:26:36.314Z,25.37
2019-03-01T14:29:12.796Z,28.43
2019-03-01T14:32:32.324Z,22.37
2019-03-01T14:35:03.946Z,23.57
2019-03-01T14:45:32.316Z,29.20
2019-03-01T14:48:05.187Z,25.30
2019-03-01T14:51:18.079Z,26.03
2019-03-01T14:53:57.667Z,25.60
2019-03-01T14:57:10.105Z,20.53
2019-03-01T14:59:47.918Z,19.63
2019-03-01T15:05:33.749Z,18.20
2019-03-01T15:08:07.725Z,15.17
2019-03-01T15:10:54.309Z,13.17
2019-03-01T15:14:13.732Z,15.87
2019-03-01T15:16:43.274Z,11.90
2019-03-01T15:19:54.055Z,11.27
2019-03-01T15:22:24.595Z,11.93
2019-03-01T15:24:57.190Z,11.73
2019-03-01T15:27:33.640Z,11.57
2019-03-01T15:30:49.184Z,8.33
2019-03-01T15:33:20.313Z,10.20
2019-03-01T15:36:25.079Z,10.93
2019-03-01T15:39:03.020Z,9.47
2019-03-01T15:42:21.084Z,9.30
2019-03-01T15:44:52.090Z,9.57
2019-03-01T15:49:59.241Z,9.73
2019-03-01T15:52:33.422Z,7.70
2019-03-01T15:55:03.416Z,10.10
2019-03-01T15:57:49.082Z,7.57
2019-03-01T16:00:25.519Z,6.67
2019-03-01T16:03:01.586Z,6.20
2019-03-01T16:06:22.454Z,6.63
2019-03-01T16:08:57.689Z,9.63
2019-03-01T16:12:06.200Z,11.40
2019-03-01T16:14:37.480Z,19.07
2019-03-01T16:17:10.956Z,19.03
2019-03-01T16:19:46.959Z,22.90
2019-03-01T16:22:19.598Z,20.93
2019-03-01T16:38:49.055Z,17.87
2019-03-01T16:41:19.859Z,25.40
2019-03-01T16:44:11.846Z,26.13
2019-03-01T16:46:39.626Z,26.60
2019-03-01T16:49:10.908Z,29.60
2019-03-01T16:51:43.037Z,24.83
2019-03-01T16:54:16.703Z,30.23
2019-03-01T16:57:30.120Z,25.87
2019-03-01T17:00:04.776Z,23.43
2019-03-01T17:03:19.829Z,26.30
2019-03-01T17:09:20.192Z,21.00
2019-03-01T17:11:54.756Z,29.33
2019-03-01T17:14:52.148Z,28.80
2019-03-01T17:17:25.723Z,25.23
2019-03-01T17:20:28.967Z,25.83
2019-03-01T17:23:05.180Z,25.93
2019-03-01T17:32:18.567Z,25.90
2019-03-01T17:34:49.666Z,27.03
2019-03-01T17:38:07.016Z,24.53
2019-03-01T17:40:35.875Z,33.50
2019-03-01T17:43:06.767Z,28.47
2019-03-01T17:45:47.991Z,25.33
2019-03-01T17:48:22.206Z,33.63
2019-03-01T17:51:28.926Z,24.40
2019-03-01T17:53:59.494Z,32.47
2019-03-01T17:57:20.538Z,30.80
2019-03-01T17:59:55.731Z,27.60
2019-03-01T18:03:16.071Z,29.57
2019-03-01T18:05:54.101Z,25.53
2019-03-01T18:09:06.304Z,30.80
2019-03-01T18:11:45.551Z,28.13
2019-03-01T18:17:13.397Z,29.67
2019-03-01T18:19:46.239Z,29.33
2019-03-01T18:22:19.128Z,29.03
2019-03-01T18:24:50.049Z,27.93
2019-03-01T18:27:41.501Z,27.30
2019-03-01T18:30:23.091Z,32.37
2019-03-01T18:35:52.431Z,27.83
2019-03-01T18:38:23.872Z,27.23
2019-03-01T18:41:27.416Z,28.63
2019-03-01T18:43:58.997Z,28.30
2019-03-01T18:47:35.496Z,32.07
2019-03-01T18:49:08.031Z,27.70
2019-03-01T18:51:42.225Z,30.27
2019-03-01T18:54:44.053Z,30.77
2019-03-01T18:57:13.346Z,29.87
2019-03-01T18:59:43.135Z,30.43
2019-03-01T19:03:08.710Z,26.47
2019-03-01T19:05:42.241Z,29.63
2019-03-01T19:08:45.056Z,27.53
2019-03-01T19:11:16.085Z,27.77
2019-03-01T19:14:24.780Z,35.60
2019-03-01T19:16:55.696Z,26.47
2019-03-01T19:22:20.074Z,30.93
2019-03-01T19:25:03.123Z,28.57
2019-03-01T19:27:42.713Z,33.23
2019-03-01T19:30:15.375Z,27.23
2019-03-01T19:33:20.379Z,29.10
2019-03-01T19:35:50.333Z,29.10
2019-03-01T19:38:25.132Z,30.97
2019-03-01T19:40:56.529Z,27.17
2019-03-01T19:43:27.867Z,31.60
2019-03-01T19:46:00.778Z,27.43
2019-03-01T19:48:38.069Z,27.70
2019-03-01T19:51:12.404Z,24.87
2019-03-01T19:54:23.328Z,27.53
2019-03-01T19:57:01.474Z,26.80
2019-03-01T19:59:32.341Z,25.83
2019-03-01T20:02:40.034Z,21.43
2019-03-01T20:05:18.639Z,23.40
2019-03-01T20:08:13.813Z,22.27
2019-03-01T20:10:43.097Z,20.63
2019-03-01T20:13:16.395Z,19.53
2019-03-01T20:16:36.466Z,20.90
2019-03-01T20:19:10.294Z,18.20
2019-03-01T20:21:44.152Z,18.80
2019-03-01T20:24:23.554Z,22.83
2019-03-01T20:26:54.076Z,23.47
2019-03-01T20:30:04.333Z,19.80
2019-03-01T20:32:34.992Z,21.17
2019-03-01T20:38:04.521Z,17.67
2019-03-01T20:47:06.079Z,22.80
2019-03-01T20:49:39.325Z,21.13
2019-03-01T20:52:11.664Z,18.83
2019-03-01T20:55:14.442Z,22.33
2019-03-01T20:57:51.882Z,23.93
2019-03-01T21:00:26.119Z,22.60
2019-03-01T21:02:56.199Z,21.83
2019-03-01T21:05:30.419Z,18.27
2019-03-01T21:08:01.173Z,22.63
2019-03-01T21:10:32.011Z,18.97
2019-03-01T21:13:29.618Z,21.20
2019-03-01T21:16:00.225Z,24.30
2019-03-01T21:21:28.894Z,22.17
2019-03-01T21:24:46.670Z,19.73
2019-03-01T21:27:17.160Z,18.97
2019-03-01T21:30:32.782Z,18.67
2019-03-01T21:33:04.868Z,19.43
2019-03-01T21:36:07.189Z,22.10
2019-03-01T21:38:36.968Z,17.60
2019-03-01T21:41:09.811Z,22.83
2019-03-01T21:43:47.190Z,16.83
2019-03-01T21:46:21.041Z,20.17
2019-03-01T21:49:39.617Z,20.40
2019-03-01T21:52:13.669Z,18.13
2019-03-01T21:54:44.180Z,19.37
2019-03-01T21:58:06.633Z,20.43
2019-03-01T22:00:39.568Z,20.93
2019-03-01T22:03:59.277Z,22.40
2019-03-01T22:06:40.197Z,18.80
2019-03-01T22:09:03.010Z,19.77
2019-03-01T22:11:36.072Z,19.87
2019-03-01T22:14:19.413Z,18.10
2019-03-01T22:17:26.313Z,20.27
2019-03-01T22:20:08.719Z,21.37
2019-03-01T22:22:39.151Z,16.77
2019-03-01T22:25:51.683Z,20.87
2019-03-01T22:28:27.084Z,20.90
2019-03-01T22:33:43.104Z,21.80
2019-03-01T22:36:19.039Z,22.30
2019-03-01T22:38:51.969Z,17.63
2019-03-01T22:41:24.921Z,21.40
2019-03-01T22:47:41.867Z,19.57
2019-03-01T22:50:16.082Z,18.53
2019-03-01T22:52:48.468Z,21.20
2019-03-01T22:56:08.646Z,21.70
2019-03-01T22:58:44.685Z,17.17
2019-03-01T23:04:07.548Z,21.33
2019-03-01T23:06:43.962Z,22.03
2019-03-01T23:09:16.370Z,23.67
2019-03-01T23:11:53.014Z,22.30
2019-03-01T23:14:27.361Z,20.03
2019-03-01T23:16:59.808Z,23.37
2019-03-01T23:19:40.489Z,24.67
2019-03-01T23:22:14.362Z,19.63
2019-03-01T23:25:18.204Z,21.13
2019-03-01T23:27:51.603Z,20.47
2019-03-01T23:30:28.831Z,23.70
2019-03-01T23:33:01.142Z,20.27
2019-03-01T23:35:32.825Z,20.43
2019-03-01T23:38:03.603Z,19.67
2019-03-01T23:40:45.782Z,17.73
2019-03-01T23:43:15.361Z,20.23
2019-03-01T23:46:09.957Z,21.37
2019-03-01T23:48:48.966Z,22.00
2019-03-01T23:51:19.559Z,21.40
2019-03-01T23:53:49.621Z,21.23
2019-03-01T23:56:29.675Z,21.77
